createdAt,value
2019-04-05T00:00:22.654Z,9.70
2019-04-05T00:02:51.121Z,9.60
2019-04-05T00:05:19.560Z,9.80
2019-04-05T00:07:48.022Z,9.90
2019-04-05T00:10:16.540Z,10.00
2019-04-05T00:12:44.994Z,9.90
2019-04-05T00:15:16.057Z,9.90
2019-04-05T00:17:43.788Z,9.80
2019-04-05T00:20:12.558Z,9.80
2019-04-05T00:22:41.018Z,10.00
2019-04-05T00:25:09.654Z,9.90
2019-04-05T00:27:38.192Z,10.00
2019-04-05T00:30:09.722Z,9.80
2019-04-05T00:32:38.178Z,10.00
2019-04-05T00:35:07.663Z,10.00
2019-04-05T00:37:36.324Z,9.90
2019-04-05T00:40:10.764Z,10.00
2019-04-05T00:42:39.226Z,9.80
2019-04-05T00:45:08.409Z,9.90
2019-04-05T00:47:36.943Z,9.90
2019-04-05T00:50:07.336Z,9.70
2019-04-05T00:52:35.943Z,10.00
2019-04-05T00:55:06.313Z,9.80
2019-04-05T00:57:34.846Z,9.80
2019-04-05T01:00:03.633Z,9.60
2019-04-05T01:02:32.325Z,9.60
2019-04-05T01:05:00.760Z,9.80
2019-04-05T01:07:29.353Z,9.90
2019-04-05T01:09:58.031Z,9.80
2019-04-05T01:12:27.049Z,9.90
2019-04-05T01:14:55.729Z,9.80
2019-04-05T01:17:25.097Z,9.70
2019-04-05T01:19:56.993Z,9.80
2019-04-05T01:22:27.397Z,9.70
2019-04-05T01:24:57.193Z,9.70
2019-04-05T01:27:27.011Z,9.80
2019-04-05T01:29:55.600Z,9.90
2019-04-05T01:32:24.106Z,9.50
2019-04-05T01:34:52.641Z,9.80
2019-04-05T01:37:21.711Z,9.90
2019-04-05T01:39:50.172Z,9.80
2019-04-05T01:42:18.845Z,9.80
2019-04-05T01:44:47.532Z,9.80
2019-04-05T01:47:16.140Z,9.80
2019-04-05T01:49:44.598Z,9.80
2019-04-05T01:52:13.047Z,9.70
2019-04-05T01:54:41.584Z,9.60
2019-04-05T01:57:10.094Z,9.90
2019-04-05T01:59:38.563Z,9.90
2019-04-05T02:02:06.997Z,9.80
2019-04-05T02:04:35.511Z,9.80
2019-04-05T02:07:04.114Z,9.90
2019-04-05T02:09:32.724Z,9.70
2019-04-05T02:12:01.179Z,9.80
2019-04-05T02:14:29.700Z,9.90
2019-04-05T02:16:58.154Z,9.80
2019-04-05T02:19:26.686Z,10.00
2019-04-05T02:21:55.193Z,9.80
2019-04-05T02:24:23.658Z,9.90
2019-04-05T02:26:52.246Z,10.00
2019-04-05T02:29:20.850Z,10.10
2019-04-05T02:31:49.432Z,9.90
2019-04-05T02:34:17.885Z,10.00
2019-04-05T02:36:46.317Z,9.80
2019-04-05T02:39:14.790Z,9.70
2019-04-05T02:41:43.491Z,9.70
2019-04-05T02:44:13.789Z,10.00
2019-04-05T02:46:44.374Z,9.70
2019-04-05T02:49:13.293Z,9.70
2019-04-05T02:51:43.448Z,9.90
2019-04-05T02:54:12.070Z,9.80
2019-04-05T02:56:40.585Z,9.80
2019-04-05T02:59:09.281Z,9.90
2019-04-05T03:01:37.975Z,10.00
2019-04-05T03:04:06.513Z,9.80
2019-04-05T03:06:35.560Z,10.10
2019-04-05T03:09:06.059Z,10.10
2019-04-05T03:11:35.621Z,10.00
2019-04-05T03:14:04.602Z,9.80
2019-04-05T03:16:41.176Z,10.00
2019-04-05T03:19:12.576Z,10.10
2019-04-05T03:21:44.048Z,10.10
2019-04-05T03:24:15.639Z,9.80
2019-04-05T03:26:47.248Z,9.90
2019-04-05T03:29:15.875Z,10.00
2019-04-05T03:31:44.567Z,9.90
2019-04-05T03:34:13.725Z,9.90
2019-04-05T03:36:42.444Z,9.70
2019-04-05T03:39:11.014Z,9.70
2019-04-05T03:41:39.925Z,9.60
2019-04-05T03:44:09.599Z,9.70
2019-04-05T03:46:54.796Z,9.80
2019-04-05T03:49:08.818Z,9.80
2019-04-05T03:51:37.510Z,9.70
2019-04-05T03:54:06.684Z,9.60
2019-04-05T03:56:37.954Z,9.50
2019-04-05T03:59:05.890Z,9.50
2019-04-05T04:01:34.368Z,9.60
2019-04-05T04:04:03.344Z,9.90
2019-04-05T04:06:31.966Z,9.70
2019-04-05T04:09:00.552Z,9.60
2019-04-05T04:11:29.549Z,9.60
2019-04-05T04:13:58.837Z,9.60
2019-04-05T04:16:27.375Z,9.50
2019-04-05T04:18:55.823Z,9.50
2019-04-05T04:21:38.996Z,9.60
2019-04-05T04:24:09.279Z,9.50
2019-04-05T04:26:38.103Z,9.50
2019-04-05T04:29:06.684Z,9.40
2019-04-05T04:31:35.586Z,9.40
2019-04-05T04:34:04.464Z,9.40
2019-04-05T04:36:33.046Z,9.50
2019-04-05T04:39:01.494Z,9.40
2019-04-05T04:41:32.127Z,9.50
2019-04-05T04:44:00.791Z,9.50
2019-04-05T04:46:29.629Z,9.60
2019-04-05T04:48:58.912Z,9.60
2019-04-05T04:51:27.823Z,9.40
2019-04-05T04:53:56.591Z,9.40
2019-04-05T04:56:25.040Z,9.50
2019-04-05T04:58:53.765Z,9.50
2019-04-05T05:01:22.482Z,9.60
2019-04-05T05:03:51.276Z,9.70
2019-04-05T05:06:19.787Z,9.60
2019-04-05T05:08:48.493Z,9.40
2019-04-05T05:11:17.009Z,9.40
2019-04-05T05:13:45.713Z,9.50
2019-04-05T05:16:14.231Z,9.40
2019-04-05T05:18:45.473Z,9.60
2019-04-05T05:21:14.287Z,9.60
2019-04-05T05:23:43.025Z,9.60
2019-04-05T05:26:11.605Z,9.50
2019-04-05T05:28:40.204Z,9.40
2019-04-05T05:31:08.709Z,9.60
2019-04-05T05:33:37.319Z,9.60
2019-04-05T05:36:06.012Z,9.70
2019-04-05T05:38:34.606Z,9.60
2019-04-05T05:41:03.122Z,9.50
2019-04-05T05:43:31.596Z,9.50
2019-04-05T05:46:00.109Z,9.40
2019-04-05T05:48:30.828Z,9.50
2019-04-05T05:50:59.249Z,9.60
2019-04-05T05:53:27.838Z,9.60
2019-04-05T05:55:56.302Z,9.40
2019-04-05T05:58:25.864Z,9.50
2019-04-05T06:00:54.901Z,9.50
2019-04-05T06:03:23.358Z,9.70
2019-04-05T06:06:03.643Z,9.30
2019-04-05T06:08:22.057Z,9.60
2019-04-05T06:10:50.493Z,9.40
2019-04-05T06:13:18.964Z,9.60
2019-04-05T06:15:47.410Z,9.50
2019-04-05T06:18:15.919Z,9.50
2019-04-05T06:20:44.686Z,9.50
2019-04-05T06:23:13.140Z,9.60
2019-04-05T06:25:41.602Z,9.60
2019-04-05T06:28:10.054Z,9.60
2019-04-05T06:30:38.511Z,9.60
2019-04-05T06:33:06.954Z,9.60
2019-04-05T06:35:35.414Z,9.40
2019-04-05T06:38:03.871Z,9.20
2019-04-05T06:40:40.806Z,9.20
2019-04-05T06:43:02.575Z,9.10
2019-04-05T06:45:31.025Z,9.20
2019-04-05T06:47:59.479Z,9.20
2019-04-05T06:50:27.940Z,9.20
2019-04-05T06:52:56.418Z,9.20
2019-04-05T06:55:24.888Z,9.20
2019-04-05T06:57:53.337Z,9.20
2019-04-05T07:00:24.956Z,9.40
2019-04-05T07:02:53.469Z,9.50
2019-04-05T07:05:21.920Z,9.40
2019-04-05T07:07:50.361Z,9.40
2019-04-05T07:10:18.838Z,9.50
2019-04-05T07:12:47.362Z,9.60
2019-04-05T07:15:15.935Z,9.60
2019-04-05T07:17:44.393Z,9.60
2019-04-05T07:20:12.986Z,9.70
2019-04-05T07:22:41.426Z,9.70
2019-04-05T07:25:10.013Z,9.70
2019-04-05T07:27:38.474Z,9.50
2019-04-05T07:30:07.190Z,9.70
2019-04-05T07:32:35.624Z,9.60
2019-04-05T07:35:04.935Z,9.80
2019-04-05T07:37:33.523Z,9.60
2019-04-05T07:40:02.006Z,9.60
2019-04-05T07:42:30.448Z,9.70
2019-04-05T07:44:58.907Z,9.80
2019-04-05T07:47:27.338Z,9.90
2019-04-05T07:49:55.807Z,10.10
2019-04-05T07:52:24.326Z,9.70
2019-04-05T07:54:53.157Z,10.00
2019-04-05T07:57:21.709Z,9.90
2019-04-05T07:59:50.239Z,9.90
2019-04-05T08:02:18.769Z,9.80
2019-04-05T08:04:47.210Z,10.00
2019-04-05T08:07:17.202Z,9.80
2019-04-05T08:09:45.882Z,10.00
2019-04-05T08:12:14.325Z,10.20
2019-04-05T08:14:42.846Z,10.10
2019-04-05T08:17:16.132Z,10.00
2019-04-05T08:19:44.658Z,10.20
2019-04-05T08:22:13.188Z,10.40
2019-04-05T08:24:41.720Z,10.60
2019-04-05T08:27:10.742Z,10.70
2019-04-05T08:29:39.191Z,10.80
2019-04-05T08:32:14.541Z,11.00
2019-04-05T08:34:37.834Z,10.70
2019-04-05T08:37:06.327Z,10.90
2019-04-05T08:39:34.871Z,11.20
2019-04-05T08:42:03.359Z,11.30
2019-04-05T08:44:31.806Z,11.30
2019-04-05T08:47:00.277Z,11.60
2019-04-05T08:49:28.718Z,11.80
2019-04-05T08:51:57.231Z,11.60
2019-04-05T08:54:32.563Z,11.40
2019-04-05T08:56:55.845Z,11.30
2019-04-05T08:59:24.284Z,11.60
2019-04-05T09:01:52.746Z,11.60
2019-04-05T09:04:21.258Z,11.80
2019-04-05T09:06:49.717Z,12.20
2019-04-05T09:09:18.165Z,12.40
2019-04-05T09:11:46.644Z,12.20
2019-04-05T09:14:15.081Z,11.90
2019-04-05T09:16:43.563Z,11.90
2019-04-05T09:19:23.011Z,11.70
2019-04-05T09:21:42.244Z,11.50
2019-04-05T09:24:10.692Z,11.30
2019-04-05T09:26:39.144Z,12.00
2019-04-05T09:29:09.256Z,11.50
2019-04-05T09:31:37.807Z,11.80
2019-04-05T09:34:06.249Z,12.10
2019-04-05T09:36:34.852Z,12.00
2019-04-05T09:39:05.126Z,12.10
2019-04-05T09:41:33.566Z,11.80
2019-04-05T09:44:02.033Z,11.80
2019-04-05T09:46:30.542Z,11.50
2019-04-05T09:48:59.010Z,11.50
2019-04-05T09:51:27.463Z,11.20
2019-04-05T09:53:55.911Z,11.60
2019-04-05T09:56:24.360Z,11.80
2019-04-05T09:58:52.814Z,11.80
2019-04-05T10:01:21.250Z,12.00
2019-04-05T10:03:49.833Z,12.10
2019-04-05T10:06:18.837Z,12.40
2019-04-05T10:08:47.648Z,12.60
2019-04-05T10:11:16.144Z,13.10
2019-04-05T10:13:44.598Z,12.90
2019-04-05T10:16:13.038Z,12.90
2019-04-05T10:18:41.570Z,12.90
2019-04-05T10:21:10.080Z,12.60
2019-04-05T10:23:38.598Z,12.60
2019-04-05T10:26:07.178Z,13.10
2019-04-05T10:28:37.222Z,13.30
2019-04-05T10:31:05.684Z,13.40
2019-04-05T10:33:34.149Z,13.50
2019-04-05T10:36:02.794Z,14.00
2019-04-05T10:38:31.255Z,13.80
2019-04-05T10:40:59.699Z,14.40
2019-04-05T10:43:28.230Z,13.80
2019-04-05T10:45:56.673Z,13.40
2019-04-05T10:48:25.133Z,14.00
2019-04-05T10:50:53.591Z,13.80
2019-04-05T10:53:22.055Z,13.50
2019-04-05T10:55:50.561Z,13.20
2019-04-05T10:58:19.025Z,13.00
2019-04-05T11:00:47.569Z,12.90
2019-04-05T11:03:16.091Z,12.90
2019-04-05T11:05:44.553Z,13.10
2019-04-05T11:08:12.999Z,13.20
2019-04-05T11:10:41.448Z,13.50
2019-04-05T11:13:09.896Z,14.00
2019-04-05T11:15:38.363Z,14.10
2019-04-05T11:18:06.804Z,14.20
2019-04-05T11:20:35.274Z,14.30
2019-04-05T11:23:03.715Z,14.40
2019-04-05T11:25:32.186Z,14.30
2019-04-05T11:28:00.619Z,14.70
2019-04-05T11:30:45.934Z,14.70
2019-04-05T11:33:14.514Z,15.00
2019-04-05T11:35:43.611Z,15.50
2019-04-05T11:38:13.600Z,15.90
2019-04-05T11:40:42.918Z,17.10
2019-04-05T11:43:11.527Z,16.90
2019-04-05T11:45:40.317Z,16.30
2019-04-05T11:48:08.766Z,16.60
2019-04-05T11:50:37.228Z,16.90
2019-04-05T11:53:05.816Z,17.30
2019-04-05T11:55:34.609Z,17.90
2019-04-05T11:58:03.194Z,17.70
2019-04-05T12:00:41.999Z,17.90
2019-04-05T12:03:17.801Z,18.10
2019-04-05T12:05:46.533Z,18.10
2019-04-05T12:08:14.978Z,17.70
2019-04-05T12:10:43.434Z,17.70
2019-04-05T12:13:12.141Z,17.30
2019-04-05T12:15:40.663Z,17.20
2019-04-05T12:18:09.126Z,17.00
2019-04-05T12:20:47.909Z,17.80
2019-04-05T12:23:07.777Z,18.40
2019-04-05T12:25:36.248Z,18.60
2019-04-05T12:28:07.570Z,18.50
2019-04-05T12:30:35.039Z,17.30
2019-04-05T12:33:13.592Z,17.50
2019-04-05T12:35:33.935Z,17.20
2019-04-05T12:38:02.383Z,17.20
2019-04-05T12:40:30.912Z,17.30
2019-04-05T12:42:59.359Z,17.40
2019-04-05T12:45:27.805Z,16.90
2019-04-05T12:47:58.942Z,17.10
2019-04-05T12:50:26.444Z,18.70
2019-04-05T12:52:56.760Z,18.60
2019-04-05T12:55:26.017Z,18.70
2019-04-05T12:57:56.214Z,18.30
2019-04-05T13:00:25.965Z,16.40
2019-04-05T13:02:57.056Z,15.60
2019-04-05T13:05:25.181Z,14.90
2019-04-05T13:07:53.633Z,14.90
2019-04-05T13:10:25.109Z,15.60
2019-04-05T13:12:52.339Z,15.20
2019-04-05T13:15:20.793Z,15.40
2019-04-05T13:17:49.249Z,15.30
2019-04-05T13:20:18.336Z,14.80
2019-04-05T13:22:46.790Z,15.10
2019-04-05T13:25:15.249Z,16.00
2019-04-05T13:27:43.788Z,16.40
2019-04-05T13:30:12.765Z,17.00
2019-04-05T13:32:41.231Z,17.10
2019-04-05T13:35:09.917Z,17.10
2019-04-05T13:37:38.490Z,16.90
2019-04-05T13:40:08.283Z,16.10
2019-04-05T13:42:36.760Z,15.70
2019-04-05T13:45:06.956Z,16.10
2019-04-05T13:47:37.727Z,15.80
2019-04-05T13:50:10.874Z,15.50
2019-04-05T13:52:41.481Z,15.50
2019-04-05T13:55:11.333Z,15.80
2019-04-05T13:57:40.968Z,15.60
2019-04-05T14:00:10.079Z,15.50
2019-04-05T14:02:38.694Z,15.80
2019-04-05T14:05:07.359Z,15.80
2019-04-05T14:07:35.828Z,15.60
2019-04-05T14:10:10.636Z,15.70
2019-04-05T14:12:37.661Z,16.00
2019-04-05T14:15:10.835Z,15.90
2019-04-05T14:17:37.478Z,15.90
2019-04-05T14:20:09.119Z,15.70
2019-04-05T14:22:37.933Z,15.50
2019-04-05T14:25:07.266Z,15.80
2019-04-05T14:27:35.863Z,15.30
2019-04-05T14:30:06.642Z,15.40
2019-04-05T14:32:35.154Z,15.10
2019-04-05T14:35:07.422Z,15.00
2019-04-05T14:37:34.785Z,15.10
2019-04-05T14:40:04.570Z,15.40
2019-04-05T14:42:33.049Z,15.20
2019-04-05T14:45:01.492Z,15.00
2019-04-05T14:47:30.006Z,15.20
2019-04-05T14:50:01.003Z,15.40
2019-04-05T14:52:28.863Z,15.20
2019-04-05T14:55:00.078Z,15.00
2019-04-05T14:57:29.077Z,15.40
2019-04-05T14:59:57.625Z,15.20
2019-04-05T15:02:26.159Z,15.30
2019-04-05T15:04:54.647Z,14.90
2019-04-05T15:07:23.108Z,14.90
2019-04-05T15:09:54.666Z,15.10
2019-04-05T15:12:21.793Z,15.30
2019-04-05T15:14:50.263Z,15.20
2019-04-05T15:17:18.694Z,15.40
2019-04-05T15:19:47.161Z,15.20
2019-04-05T15:22:15.609Z,15.30
2019-04-05T15:24:44.643Z,15.00
2019-04-05T15:27:14.230Z,15.10
2019-04-05T15:29:42.682Z,15.40
2019-04-05T15:32:11.132Z,15.00
2019-04-05T15:34:40.868Z,15.00
2019-04-05T15:37:09.531Z,14.80
2019-04-05T15:39:38.072Z,14.90
2019-04-05T15:42:06.674Z,14.90
2019-04-05T15:44:35.294Z,14.80
2019-04-05T15:47:03.936Z,14.50
2019-04-05T15:49:32.492Z,14.70
2019-04-05T15:52:00.953Z,14.60
2019-04-05T15:54:33.187Z,14.60
2019-04-05T15:57:01.452Z,14.70
2019-04-05T15:59:33.338Z,14.60
2019-04-05T16:02:01.464Z,14.60
2019-04-05T16:04:30.248Z,14.60
2019-04-05T16:06:58.696Z,14.50
2019-04-05T16:09:27.158Z,14.30
2019-04-05T16:11:55.621Z,14.30
2019-04-05T16:14:24.087Z,14.40
2019-04-05T16:16:53.729Z,14.40
2019-04-05T16:19:22.300Z,14.30
2019-04-05T16:21:50.754Z,14.20
2019-04-05T16:24:19.199Z,14.20
2019-04-05T16:26:47.679Z,14.00
2019-04-05T16:29:16.140Z,14.10
2019-04-05T16:31:44.669Z,14.30
2019-04-05T16:34:13.132Z,14.30
2019-04-05T16:36:41.613Z,14.20
2019-04-05T16:39:11.763Z,14.20
2019-04-05T16:41:40.221Z,14.00
2019-04-05T16:44:08.670Z,14.20
2019-04-05T16:46:37.155Z,14.00
2019-04-05T16:49:05.738Z,13.90
2019-04-05T16:51:34.209Z,13.90
2019-04-05T16:54:03.654Z,14.00
2019-04-05T16:56:32.183Z,13.80
2019-04-05T16:59:00.621Z,13.90
2019-04-05T17:01:29.087Z,13.80
2019-04-05T17:03:57.541Z,13.70
2019-04-05T17:06:26.017Z,13.70
2019-04-05T17:08:54.471Z,13.70
2019-04-05T17:11:22.949Z,13.40
2019-04-05T17:13:51.410Z,13.50
2019-04-05T17:16:19.854Z,13.40
2019-04-05T17:18:48.329Z,13.40
2019-04-05T17:21:16.861Z,13.30
2019-04-05T17:23:45.374Z,13.40
2019-04-05T17:26:19.295Z,13.20
2019-04-05T17:28:47.744Z,13.20
2019-04-05T17:31:16.218Z,13.20
2019-04-05T17:33:44.942Z,13.20
2019-04-05T17:36:13.570Z,13.10
2019-04-05T17:38:42.102Z,13.00
2019-04-05T17:41:10.645Z,13.00
2019-04-05T17:43:39.103Z,12.80
2019-04-05T17:46:07.701Z,12.70
2019-04-05T17:48:36.243Z,12.80
2019-04-05T17:51:04.716Z,12.60
2019-04-05T17:53:33.302Z,12.40
2019-04-05T17:56:01.822Z,12.50
2019-04-05T17:58:32.488Z,12.40
2019-04-05T18:01:01.170Z,12.50
2019-04-05T18:03:29.643Z,12.40
2019-04-05T18:05:58.090Z,12.50
2019-04-05T18:08:26.563Z,12.40
2019-04-05T18:10:55.190Z,12.40
2019-04-05T18:13:23.656Z,12.30
2019-04-05T18:15:53.142Z,12.20
2019-04-05T18:18:21.713Z,12.30
2019-04-05T18:20:50.212Z,12.10
2019-04-05T18:23:24.727Z,12.10
2019-04-05T18:25:48.929Z,11.90
2019-04-05T18:28:17.411Z,11.70
2019-04-05T18:30:46.673Z,11.80
2019-04-05T18:33:15.232Z,11.70
2019-04-05T18:35:43.878Z,11.60
2019-04-05T18:38:12.325Z,11.80
2019-04-05T18:40:40.797Z,11.80
2019-04-05T18:43:09.311Z,11.80
2019-04-05T18:45:37.977Z,11.80
2019-04-05T18:48:06.575Z,11.80
2019-04-05T18:50:35.127Z,11.60
2019-04-05T18:53:03.625Z,11.50
2019-04-05T18:55:32.103Z,11.60
2019-04-05T18:58:00.655Z,11.50
2019-04-05T19:00:29.247Z,11.40
2019-04-05T19:02:57.678Z,11.50
2019-04-05T19:05:26.233Z,11.50
2019-04-05T19:07:54.852Z,11.40
2019-04-05T19:10:36.208Z,11.40
2019-04-05T19:12:53.746Z,11.40
2019-04-05T19:15:22.300Z,11.30
2019-04-05T19:17:50.756Z,11.30
2019-04-05T19:20:19.254Z,11.20
2019-04-05T19:22:47.770Z,11.10
2019-04-05T19:25:16.248Z,11.10
2019-04-05T19:27:44.720Z,11.10
2019-04-05T19:50:15.790Z,10.10
2019-04-05T19:52:44.302Z,10.10
2019-04-05T19:55:12.919Z,10.10
2019-04-05T19:57:41.454Z,10.00
2019-04-05T20:00:10.359Z,10.00
2019-04-05T20:02:38.801Z,9.90
2019-04-05T20:05:07.920Z,9.80
2019-04-05T20:07:36.431Z,9.70
2019-04-05T20:10:05.787Z,9.80
2019-04-05T20:12:34.240Z,9.70
2019-04-05T20:15:02.748Z,9.70
2019-04-05T20:17:31.197Z,9.60
2019-04-05T20:19:59.646Z,9.60
2019-04-05T20:22:28.099Z,9.50
2019-04-05T20:24:56.621Z,9.50
2019-04-05T20:27:25.102Z,9.40
2019-04-05T20:29:55.205Z,9.50
2019-04-05T20:32:24.422Z,9.40
2019-04-05T20:34:53.150Z,9.30
2019-04-05T20:37:21.791Z,9.40
2019-04-05T20:39:50.310Z,9.50
2019-04-05T20:42:18.792Z,9.30
2019-04-05T20:44:47.255Z,9.30
2019-04-05T20:47:15.719Z,9.20
2019-04-05T20:49:44.182Z,9.20
2019-04-05T20:52:12.635Z,9.10
2019-04-05T20:54:41.094Z,9.00
2019-04-05T20:57:09.683Z,9.00
2019-04-05T20:59:38.148Z,9.00
2019-04-05T21:02:06.779Z,8.90
2019-04-05T21:04:35.227Z,8.80
2019-04-05T21:07:03.678Z,8.80
2019-04-05T21:09:32.186Z,8.70
2019-04-05T21:12:00.682Z,8.80
2019-04-05T21:14:29.134Z,8.90
2019-04-05T21:16:57.599Z,8.80
2019-04-05T21:19:26.048Z,8.90
2019-04-05T21:21:54.522Z,8.70
2019-04-05T21:24:22.978Z,8.70
2019-04-05T21:26:51.477Z,8.60
2019-04-05T21:29:19.914Z,8.60
2019-04-05T21:31:48.371Z,8.70
2019-04-05T21:34:16.821Z,8.60
2019-04-05T21:36:48.066Z,8.60
2019-04-05T21:39:16.529Z,8.50
2019-04-05T21:41:45.057Z,8.50
2019-04-05T21:44:13.506Z,8.50
2019-04-05T21:46:41.973Z,8.60
2019-04-05T21:49:10.410Z,8.60
2019-04-05T21:51:38.892Z,8.50
2019-04-05T21:54:07.342Z,8.50
2019-04-05T21:56:35.816Z,8.40
2019-04-05T21:59:04.265Z,8.40
2019-04-05T22:01:32.941Z,8.30
2019-04-05T22:04:01.664Z,8.60
2019-04-05T22:06:30.126Z,8.50
2019-04-05T22:08:58.577Z,8.50
2019-04-05T22:11:27.873Z,8.60
2019-04-05T22:13:56.465Z,8.60
2019-04-05T22:16:24.931Z,8.40
2019-04-05T22:18:53.376Z,8.40
2019-04-05T22:21:21.835Z,8.40
2019-04-05T22:23:50.282Z,8.40
2019-04-05T22:26:18.838Z,8.20
2019-04-05T22:28:47.320Z,8.20
2019-04-05T22:31:15.805Z,8.10
2019-04-05T22:33:44.239Z,8.10
2019-04-05T22:36:12.827Z,8.10
2019-04-05T22:38:41.264Z,7.90
2019-04-05T22:41:09.790Z,8.00
2019-04-05T22:43:38.250Z,8.10
2019-04-05T22:46:06.798Z,8.10
2019-04-05T22:48:35.299Z,7.90
2019-04-05T22:51:03.861Z,8.10
2019-04-05T22:53:32.376Z,8.10
2019-04-05T22:56:00.816Z,8.20
2019-04-05T22:58:29.340Z,8.10
2019-04-05T23:00:57.832Z,8.00
2019-04-05T23:03:26.304Z,8.30
2019-04-05T23:05:54.878Z,8.20
2019-04-05T23:08:23.386Z,8.20
2019-04-05T23:10:51.908Z,8.20
2019-04-05T23:13:20.401Z,8.30
2019-04-05T23:15:48.874Z,8.10
2019-04-05T23:18:17.331Z,8.10
2019-04-05T23:20:45.776Z,8.30
2019-04-05T23:23:14.223Z,8.10
2019-04-05T23:25:42.667Z,8.10
2019-04-05T23:28:11.131Z,8.10
2019-04-05T23:30:39.570Z,8.10
2019-04-05T23:33:08.033Z,8.30
2019-04-05T23:35:36.653Z,8.20
2019-04-05T23:38:05.122Z,8.20
2019-04-05T23:40:33.571Z,7.90
2019-04-05T23:43:02.011Z,8.00
2019-04-05T23:45:30.518Z,8.00
2019-04-05T23:47:58.982Z,8.10
2019-04-05T23:50:27.421Z,8.00
2019-04-05T23:52:55.906Z,7.90
2019-04-05T23:55:32.821Z,7.80
2019-04-05T23:57:54.630Z,7.80
